sensor_id;sensor_type;location;lat;lon;timestamp;pressure;altitude;pressure_sealevel;temperature;humidity
79048;BME280;68680;50.764;6.120;2023-07-31T00:05:43;99155.50;;;15.34;100.00
79048;BME280;68680;50.764;6.120;2023-07-31T00:14:53;99154.19;;;15.37;100.00
79048;BME280;68680;50.764;6.120;2023-07-31T00:17:18;99147.19;;;15.36;100.00
79048;BME280;68680;50.764;6.120;2023-07-31T00:19:44;99154.69;;;15.34;100.00
79048;BME280;68680;50.764;6.120;2023-07-31T00:22:11;99153.38;;;15.36;100.00
79048;BME280;68680;50.764;6.120;2023-07-31T00:24:37;99153.38;;;15.36;100.00
79048;BME280;68680;50.764;6.120;2023-07-31T00:27:04;99157.16;;;15.40;100.00
79048;BME280;68680;50.764;6.120;2023-07-31T00:29:30;99152.88;;;15.44;100.00
79048;BME280;68680;50.764;6.120;2023-07-31T00:31:56;99153.41;;;15.41;100.00
79048;BME280;68680;50.764;6.120;2023-07-31T00:34:22;99145.88;;;15.43;100.00
79048;BME280;68680;50.764;6.120;2023-07-31T00:36:48;99147.19;;;15.36;100.00
79048;BME280;68680;50.764;6.120;2023-07-31T00:39:15;99154.72;;;15.39;100.00
79048;BME280;68680;50.764;6.120;2023-07-31T00:41:40;99150.16;;;15.39;100.00
79048;BME280;68680;50.764;6.120;2023-07-31T00:44:06;99150.69;;;15.36;100.00
79048;BME280;68680;50.764;6.120;2023-07-31T00:46:32;99150.72;;;15.41;100.00
79048;BME280;68680;50.764;6.120;2023-07-31T00:48:59;99148.84;;;15.42;100.00
79048;BME280;68680;50.764;6.120;2023-07-31T00:51:25;99147.03;;;15.52;100.00
79048;BME280;68680;50.764;6.120;2023-07-31T00:53:51;99145.38;;;15.51;100.00
79048;BME280;68680;50.764;6.120;2023-07-31T00:56:19;99133.78;;;15.46;100.00
79048;BME280;68680;50.764;6.120;2023-07-31T00:58:45;99131.13;;;15.51;100.00
79048;BME280;68680;50.764;6.120;2023-07-31T01:01:11;99121.97;;;15.47;100.00
79048;BME280;68680;50.764;6.120;2023-07-31T01:03:37;99117.16;;;15.49;100.00
79048;BME280;68680;50.764;6.120;2023-07-31T01:06:28;99122.25;;;15.50;100.00
79048;BME280;68680;50.764;6.120;2023-07-31T01:09:02;99125.75;;;15.51;100.00
79048;BME280;68680;50.764;6.120;2023-07-31T01:11:41;99118.81;;;15.55;100.00
79048;BME280;68680;50.764;6.120;2023-07-31T01:14:08;99116.41;;;15.53;100.00
79048;BME280;68680;50.764;6.120;2023-07-31T01:16:34;99118.81;;;15.55;100.00
79048;BME280;68680;50.764;6.120;2023-07-31T01:19:00;99112.31;;;15.51;100.00
79048;BME280;68680;50.764;6.120;2023-07-31T01:21:51;99114.78;;;15.57;100.00
79048;BME280;68680;50.764;6.120;2023-07-31T01:24:28;99110.78;;;15.60;100.00
79048;BME280;68680;50.764;6.120;2023-07-31T01:27:04;99110.22;;;15.63;100.00
79048;BME280;68680;50.764;6.120;2023-07-31T01:29:38;99101.91;;;15.59;100.00
79048;BME280;68680;50.764;6.120;2023-07-31T01:32:09;99106.22;;;15.60;100.00
79048;BME280;68680;50.764;6.120;2023-07-31T01:34:37;99103.50;;;15.60;100.00
79048;BME280;68680;50.764;6.120;2023-07-31T01:37:03;99104.59;;;15.59;100.00
79048;BME280;68680;50.764;6.120;2023-07-31T01:39:29;99105.09;;;15.61;100.00
79048;BME280;68680;50.764;6.120;2023-07-31T01:41:56;99104.84;;;15.63;100.00
79048;BME280;68680;50.764;6.120;2023-07-31T01:44:22;99107.78;;;15.61;100.00
79048;BME280;68680;50.764;6.120;2023-07-31T01:46:48;99097.34;;;15.65;100.00
79048;BME280;68680;50.764;6.120;2023-07-31T01:49:14;99104.84;;;15.63;100.00
79048;BME280;68680;50.764;6.120;2023-07-31T01:51:40;99090.84;;;15.61;100.00
79048;BME280;68680;50.764;6.120;2023-07-31T01:54:05;99090.91;;;15.66;100.00
79048;BME280;68680;50.764;6.120;2023-07-31T01:56:31;99091.97;;;15.65;100.00
79048;BME280;68680;50.764;6.120;2023-07-31T01:58:58;99085.78;;;15.65;100.00
79048;BME280;68680;50.764;6.120;2023-07-31T02:01:24;99082.81;;;15.66;100.00
79048;BME280;68680;50.764;6.120;2023-07-31T02:03:50;99085.78;;;15.65;100.00
79048;BME280;68680;50.764;6.120;2023-07-31T02:06:16;99075.84;;;15.70;100.00
79048;BME280;68680;50.764;6.120;2023-07-31T02:08:41;99067.22;;;15.63;100.00
79048;BME280;68680;50.764;6.120;2023-07-31T02:11:07;99064.28;;;15.65;100.00
79048;BME280;68680;50.764;6.120;2023-07-31T02:13:33;99063.47;;;15.79;100.00
79048;BME280;68680;50.764;6.120;2023-07-31T02:16:00;99067.22;;;15.68;100.00
79048;BME280;68680;50.764;6.120;2023-07-31T02:18:26;99061.84;;;15.63;100.00
79048;BME280;68680;50.764;6.120;2023-07-31T02:20:52;99061.59;;;15.70;100.00
79048;BME280;68680;50.764;6.120;2023-07-31T02:23:18;99055.94;;;15.71;100.00
79048;BME280;68680;50.764;6.120;2023-07-31T02:25:45;99054.34;;;15.75;100.00
79048;BME280;68680;50.764;6.120;2023-07-31T02:28:11;99050.03;;;15.79;100.00
79048;BME280;68680;50.764;6.120;2023-07-31T02:30:37;99053.00;;;15.78;100.00
79048;BME280;68680;50.764;6.120;2023-07-31T02:33:05;99054.88;;;15.77;100.00
79048;BME280;68680;50.764;6.120;2023-07-31T02:35:31;99048.13;;;15.75;100.00
79048;BME280;68680;50.764;6.120;2023-07-31T02:37:56;99054.88;;;15.77;100.00
79048;BME280;68680;50.764;6.120;2023-07-31T02:40:22;99044.66;;;15.79;100.00
79048;BME280;68680;50.764;6.120;2023-07-31T02:42:48;99047.63;;;15.83;100.00
79048;BME280;68680;50.764;6.120;2023-07-31T02:45:14;99047.06;;;15.81;100.00
79048;BME280;68680;50.764;6.120;2023-07-31T02:47:40;99046.81;;;15.87;100.00
79048;BME280;68680;50.764;6.120;2023-07-31T02:50:08;99036.56;;;15.84;100.00
79048;BME280;68680;50.764;6.120;2023-07-31T02:52:33;99040.38;;;15.83;100.00
79048;BME280;68680;50.764;6.120;2023-07-31T02:54:59;99048.69;;;15.82;100.00
79048;BME280;68680;50.764;6.120;2023-07-31T02:57:25;99036.06;;;15.87;100.00
79048;BME280;68680;50.764;6.120;2023-07-31T02:59:51;99036.88;;;15.83;100.00
79048;BME280;68680;50.764;6.120;2023-07-31T03:02:16;99027.19;;;15.92;100.00
79048;BME280;68680;50.764;6.120;2023-07-31T03:04:42;99030.69;;;15.92;100.00
79048;BME280;68680;50.764;6.120;2023-07-31T03:07:09;99031.50;;;15.93;100.00
79048;BME280;68680;50.764;6.120;2023-07-31T03:09:35;99022.88;;;15.86;100.00
79048;BME280;68680;50.764;6.120;2023-07-31T03:12:01;99023.16;;;15.89;100.00
79048;BME280;68680;50.764;6.120;2023-07-31T03:14:27;99023.41;;;15.88;100.00
79048;BME280;68680;50.764;6.120;2023-07-31T03:16:53;99015.91;;;15.90;100.00
79048;BME280;68680;50.764;6.120;2023-07-31T03:19:19;99013.72;;;15.92;100.00
79048;BME280;68680;50.764;6.120;2023-07-31T03:21:45;99015.34;;;15.93;100.00
79048;BME280;68680;50.764;6.120;2023-07-31T03:24:12;99019.09;;;15.92;100.00
79048;BME280;68680;50.764;6.120;2023-07-31T03:26:38;99016.72;;;15.95;100.00
79048;BME280;68680;50.764;6.120;2023-07-31T03:29:04;99010.22;;;15.96;100.00
79048;BME280;68680;50.764;6.120;2023-07-31T03:31:30;99018.59;;;16.00;100.00
79048;BME280;68680;50.764;6.120;2023-07-31T03:33:55;99011.03;;;15.92;100.00
79048;BME280;68680;50.764;6.120;2023-07-31T03:36:21;99013.72;;;15.97;100.00
79048;BME280;68680;50.764;6.120;2023-07-31T03:38:47;99012.09;;;15.96;100.00
79048;BME280;68680;50.764;6.120;2023-07-31T03:41:14;99009.41;;;15.96;100.00
79048;BME280;68680;50.764;6.120;2023-07-31T03:43:40;99010.22;;;15.96;100.00
79048;BME280;68680;50.764;6.120;2023-07-31T03:46:06;99002.72;;;15.93;100.00
79048;BME280;68680;50.764;6.120;2023-07-31T03:48:31;99000.81;;;15.99;100.00
79048;BME280;68680;50.764;6.120;2023-07-31T03:50:57;99001.91;;;15.93;100.00
79048;BME280;68680;50.764;6.120;2023-07-31T03:53:23;99003.25;;;15.95;100.00
79048;BME280;68680;50.764;6.120;2023-07-31T03:55:49;98982.25;;;15.92;100.00
79048;BME280;68680;50.764;6.120;2023-07-31T03:58:16;98991.94;;;15.98;100.00
79048;BME280;68680;50.764;6.120;2023-07-31T04:00:42;98985.75;;;15.98;100.00
79048;BME280;68680;50.764;6.120;2023-07-31T04:03:07;98981.19;;;15.98;100.00
79048;BME280;68680;50.764;6.120;2023-07-31T04:05:38;98983.88;;;15.93;100.00
79048;BME280;68680;50.764;6.120;2023-07-31T04:08:04;98975.81;;;15.98;100.00
79048;BME280;68680;50.764;6.120;2023-07-31T04:10:29;98982.25;;;15.97;100.00
79048;BME280;68680;50.764;6.120;2023-07-31T04:12:55;98983.31;;;15.96;100.00
79048;BME280;68680;50.764;6.120;2023-07-31T04:15:22;98980.91;;;16.00;100.00
79048;BME280;68680;50.764;6.120;2023-07-31T04:17:48;98976.84;;;16.08;100.00
79048;BME280;68680;50.764;6.120;2023-07-31T04:20:14;98975.78;;;16.03;100.00
79048;BME280;68680;50.764;6.120;2023-07-31T04:22:40;98970.69;;;15.97;100.00
79048;BME280;68680;50.764;6.120;2023-07-31T04:25:06;98971.50;;;15.97;100.00
79048;BME280;68680;50.764;6.120;2023-07-31T04:27:32;98975.00;;;16.03;100.00
79048;BME280;68680;50.764;6.120;2023-07-31T04:29:58;98972.84;;;16.05;100.00
79048;BME280;68680;50.764;6.120;2023-07-31T04:32:25;98968.78;;;16.08;100.00
79048;BME280;68680;50.764;6.120;2023-07-31T04:34:51;98980.09;;;16.05;100.00
79048;BME280;68680;50.764;6.120;2023-07-31T04:37:16;98969.88;;;16.07;100.00
79048;BME280;68680;50.764;6.120;2023-07-31T04:39:42;98956.16;;;16.03;100.00
79048;BME280;68680;50.764;6.120;2023-07-31T04:42:08;98960.19;;;16.06;100.00
79048;BME280;68680;50.764;6.120;2023-07-31T04:44:34;98951.84;;;16.02;100.00
79048;BME280;68680;50.764;6.120;2023-07-31T04:47:00;98950.50;;;16.10;100.00
79048;BME280;68680;50.764;6.120;2023-07-31T04:49:27;98957.25;;;16.12;100.00
79048;BME280;68680;50.764;6.120;2023-07-31T04:51:53;98954.78;;;16.16;100.00
79048;BME280;68680;50.764;6.120;2023-07-31T04:54:19;98953.19;;;16.15;100.00
79048;BME280;68680;50.764;6.120;2023-07-31T04:56:44;98957.75;;;16.09;100.00
79048;BME280;68680;50.764;6.120;2023-07-31T04:59:10;98952.66;;;16.13;100.00
79048;BME280;68680;50.764;6.120;2023-07-31T05:01:36;98946.72;;;16.16;100.00
79048;BME280;68680;50.764;6.120;2023-07-31T05:04:02;98953.19;;;16.15;100.00
79048;BME280;68680;50.764;6.120;2023-07-31T05:06:29;98961.25;;;16.20;100.00
79048;BME280;68680;50.764;6.120;2023-07-31T05:08:55;98962.03;;;16.20;100.00
79048;BME280;68680;50.764;6.120;2023-07-31T05:11:21;98952.88;;;16.26;100.00
79048;BME280;68680;50.764;6.120;2023-07-31T05:13:47;98946.69;;;16.26;100.00
79048;BME280;68680;50.764;6.120;2023-07-31T05:16:12;98935.66;;;16.27;100.00
79048;BME280;68680;50.764;6.120;2023-07-31T05:18:38;98936.47;;;16.28;100.00
79048;BME280;68680;50.764;6.120;2023-07-31T05:21:04;98930.53;;;16.26;100.00
79048;BME280;68680;50.764;6.120;2023-07-31T05:23:31;98945.09;;;16.25;100.00
79048;BME280;68680;50.764;6.120;2023-07-31T05:26:03;98939.44;;;16.21;100.00
79048;BME280;68680;50.764;6.120;2023-07-31T05:28:30;98924.66;;;16.09;100.00
79048;BME280;68680;50.764;6.120;2023-07-31T05:30:59;98930.09;;;15.88;100.00
79048;BME280;68680;50.764;6.120;2023-07-31T05:33:25;98929.31;;;15.78;100.00
79048;BME280;68680;50.764;6.120;2023-07-31T05:35:50;98922.59;;;15.70;100.00
79048;BME280;68680;50.764;6.120;2023-07-31T05:38:16;98918.53;;;15.68;100.00
79048;BME280;68680;50.764;6.120;2023-07-31T05:40:44;98926.09;;;15.60;100.00
79048;BME280;68680;50.764;6.120;2023-07-31T05:43:10;98924.19;;;15.61;100.00
79048;BME280;68680;50.764;6.120;2023-07-31T05:45:35;98901.34;;;15.64;100.00
79048;BME280;68680;50.764;6.120;2023-07-31T05:48:02;98908.59;;;15.58;100.00
79048;BME280;68680;50.764;6.120;2023-07-31T05:50:28;98901.63;;;15.57;100.00
79048;BME280;68680;50.764;6.120;2023-07-31T05:52:54;98896.25;;;15.57;100.00
79048;BME280;68680;50.764;6.120;2023-07-31T05:55:19;98894.09;;;15.59;100.00
79048;BME280;68680;50.764;6.120;2023-07-31T05:57:46;98886.28;;;15.63;100.00
79048;BME280;68680;50.764;6.120;2023-07-31T06:00:13;98890.59;;;15.69;100.00
79048;BME280;68680;50.764;6.120;2023-07-31T06:02:39;98883.31;;;15.74;100.00
79048;BME280;68680;50.764;6.120;2023-07-31T06:05:06;98881.72;;;15.78;100.00
79048;BME280;68680;50.764;6.120;2023-07-31T06:07:32;98884.91;;;15.80;100.00
79048;BME280;68680;50.764;6.120;2023-07-31T06:09:58;98872.84;;;15.83;100.00
79048;BME280;68680;50.764;6.120;2023-07-31T06:12:24;98872.56;;;15.89;100.00
79048;BME280;68680;50.764;6.120;2023-07-31T06:14:51;98877.38;;;15.92;100.00
79048;BME280;68680;50.764;6.120;2023-07-31T06:17:17;98874.41;;;15.99;100.00
79048;BME280;68680;50.764;6.120;2023-07-31T06:19:42;98879.50;;;16.06;100.00
79048;BME280;68680;50.764;6.120;2023-07-31T06:22:08;98872.47;;;16.10;100.00
79048;BME280;68680;50.764;6.120;2023-07-31T06:24:34;98873.00;;;16.17;100.00
79048;BME280;68680;50.764;6.120;2023-07-31T06:27:00;98885.63;;;16.21;100.00
79048;BME280;68680;50.764;6.120;2023-07-31T06:29:25;98882.66;;;16.28;100.00
79048;BME280;68680;50.764;6.120;2023-07-31T06:31:52;98893.97;;;16.25;100.00
79048;BME280;68680;50.764;6.120;2023-07-31T06:34:18;98895.28;;;16.27;100.00
79048;BME280;68680;50.764;6.120;2023-07-31T06:36:44;98877.28;;;16.23;100.00
79048;BME280;68680;50.764;6.120;2023-07-31T06:39:10;98880.00;;;16.18;100.00
79048;BME280;68680;50.764;6.120;2023-07-31T06:41:36;98888.31;;;16.21;100.00
79048;BME280;68680;50.764;6.120;2023-07-31T06:44:01;98872.72;;;16.23;100.00
79048;BME280;68680;50.764;6.120;2023-07-31T06:46:27;98870.06;;;16.18;100.00
79048;BME280;68680;50.764;6.120;2023-07-31T06:48:54;98868.94;;;16.19;100.00
79048;BME280;68680;50.764;6.120;2023-07-31T06:51:20;98876.75;;;16.21;100.00
79048;BME280;68680;50.764;6.120;2023-07-31T06:53:46;98870.31;;;16.17;100.00
79048;BME280;68680;50.764;6.120;2023-07-31T06:56:12;98884.28;;;16.14;100.00
79048;BME280;68680;50.764;6.120;2023-07-31T06:58:38;98893.19;;;16.14;100.00
79048;BME280;68680;50.764;6.120;2023-07-31T07:01:03;98890.28;;;16.00;100.00
79048;BME280;68680;50.764;6.120;2023-07-31T07:03:29;98893.22;;;15.99;100.00
79048;BME280;68680;50.764;6.120;2023-07-31T07:05:56;98902.09;;;15.99;100.00
79048;BME280;68680;50.764;6.120;2023-07-31T07:08:22;98891.91;;;15.86;100.00
79048;BME280;68680;50.764;6.120;2023-07-31T07:10:48;98900.53;;;15.78;100.00
79048;BME280;68680;50.764;6.120;2023-07-31T07:13:14;98892.19;;;15.75;100.00
79048;BME280;68680;50.764;6.120;2023-07-31T07:15:39;98892.22;;;15.65;100.00
79048;BME280;68680;50.764;6.120;2023-07-31T07:18:05;98882.25;;;15.65;100.00
79048;BME280;68680;50.764;6.120;2023-07-31T07:20:31;98879.28;;;15.61;100.00
79048;BME280;68680;50.764;6.120;2023-07-31T07:22:58;98883.06;;;15.66;100.00
79048;BME280;68680;50.764;6.120;2023-07-31T07:25:24;98876.88;;;15.70;100.00
79048;BME280;68680;50.764;6.120;2023-07-31T07:27:50;98865.88;;;15.72;100.00
79048;BME280;68680;50.764;6.120;2023-07-31T07:30:15;98859.13;;;15.69;100.00
79048;BME280;68680;50.764;6.120;2023-07-31T07:32:41;98867.47;;;15.68;100.00
79048;BME280;68680;50.764;6.120;2023-07-31T07:35:08;98865.88;;;15.67;100.00
79048;BME280;68680;50.764;6.120;2023-07-31T07:37:33;98859.16;;;15.64;100.00
79048;BME280;68680;50.764;6.120;2023-07-31T07:40:00;98852.97;;;15.64;100.00
79048;BME280;68680;50.764;6.120;2023-07-31T07:42:26;98858.59;;;15.62;100.00
79048;BME280;68680;50.764;6.120;2023-07-31T07:44:52;98865.56;;;15.68;100.00
79048;BME280;68680;50.764;6.120;2023-07-31T07:47:18;98859.69;;;15.71;100.00
79048;BME280;68680;50.764;6.120;2023-07-31T07:49:44;98859.09;;;15.79;100.00
79048;BME280;68680;50.764;6.120;2023-07-31T07:52:09;98850.50;;;15.82;100.00
79048;BME280;68680;50.764;6.120;2023-07-31T07:54:35;98857.50;;;15.83;100.00
79048;BME280;68680;50.764;6.120;2023-07-31T07:57:03;98850.22;;;15.89;100.00
79048;BME280;68680;50.764;6.120;2023-07-31T07:59:29;98856.13;;;15.91;100.00
79048;BME280;68680;50.764;6.120;2023-07-31T08:01:55;98855.31;;;15.95;100.00
79048;BME280;68680;50.764;6.120;2023-07-31T08:04:21;98849.66;;;15.97;100.00
79048;BME280;68680;50.764;6.120;2023-07-31T08:06:46;98858.28;;;15.94;100.00
79048;BME280;68680;50.764;6.120;2023-07-31T08:09:12;98854.78;;;15.93;100.00
79048;BME280;68680;50.764;6.120;2023-07-31T08:11:38;98845.09;;;15.92;100.00
79048;BME280;68680;50.764;6.120;2023-07-31T08:14:05;98846.69;;;16.03;100.00
79048;BME280;68680;50.764;6.120;2023-07-31T08:16:31;98839.41;;;16.04;100.00
79048;BME280;68680;50.764;6.120;2023-07-31T08:18:56;98834.59;;;16.01;100.00
79048;BME280;68680;50.764;6.120;2023-07-31T08:21:23;98828.91;;;16.02;100.00
79048;BME280;68680;50.764;6.120;2023-07-31T08:23:49;98841.84;;;16.00;100.00
79048;BME280;68680;50.764;6.120;2023-07-31T08:26:15;98830.50;;;16.14;100.00
79048;BME280;68680;50.764;6.120;2023-07-31T08:28:41;98836.41;;;16.16;100.00
79048;BME280;68680;50.764;6.120;2023-07-31T08:31:08;98836.97;;;16.08;100.00
79048;BME280;68680;50.764;6.120;2023-07-31T08:33:34;98840.19;;;16.10;100.00
79048;BME280;68680;50.764;6.120;2023-07-31T08:36:00;98832.66;;;16.12;100.00
79048;BME280;68680;50.764;6.120;2023-07-31T08:38:26;98839.66;;;16.13;100.00
79048;BME280;68680;50.764;6.120;2023-07-31T08:40:52;98830.50;;;16.14;100.00
79048;BME280;68680;50.764;6.120;2023-07-31T08:43:20;98839.66;;;16.18;100.00
79048;BME280;68680;50.764;6.120;2023-07-31T08:45:47;98836.16;;;16.17;100.00
79048;BME280;68680;50.764;6.120;2023-07-31T08:48:17;98829.97;;;16.17;100.00
79048;BME280;68680;50.764;6.120;2023-07-31T08:50:43;98838.28;;;16.20;100.00
79048;BME280;68680;50.764;6.120;2023-07-31T08:53:09;98837.94;;;16.32;100.00
79048;BME280;68680;50.764;6.120;2023-07-31T08:55:35;98839.84;;;16.36;100.00
79048;BME280;68680;50.764;6.120;2023-07-31T08:58:04;98845.47;;;16.40;100.00
79048;BME280;68680;50.764;6.120;2023-07-31T09:00:32;98834.94;;;16.43;100.00
79048;BME280;68680;50.764;6.120;2023-07-31T09:03:01;98841.91;;;16.50;100.00
79048;BME280;68680;50.764;6.120;2023-07-31T09:05:31;98843.53;;;16.51;100.00
79048;BME280;68680;50.764;6.120;2023-07-31T09:07:58;98845.69;;;16.54;100.00
79048;BME280;68680;50.764;6.120;2023-07-31T09:10:24;98855.63;;;16.53;100.00
79048;BME280;68680;50.764;6.120;2023-07-31T09:12:52;98855.38;;;16.60;100.00
79048;BME280;68680;50.764;6.120;2023-07-31T09:15:18;98850.25;;;16.53;100.00
79048;BME280;68680;50.764;6.120;2023-07-31T09:17:44;98848.09;;;16.50;100.00
79048;BME280;68680;50.764;6.120;2023-07-31T09:20:15;98842.94;;;16.64;100.00
79048;BME280;68680;50.764;6.120;2023-07-31T09:22:42;98846.69;;;16.68;99.56
79048;BME280;68680;50.764;6.120;2023-07-31T09:25:15;98836.66;;;16.78;100.00
79048;BME280;68680;50.764;6.120;2023-07-31T09:27:49;98837.66;;;16.93;98.78
79048;BME280;68680;50.764;6.120;2023-07-31T09:30:16;98837.84;;;17.06;100.00
79048;BME280;68680;50.764;6.120;2023-07-31T09:32:43;98837.03;;;17.06;98.66
79048;BME280;68680;50.764;6.120;2023-07-31T09:35:20;98837.75;;;17.16;100.00
79048;BME280;68680;50.764;6.120;2023-07-31T09:37:52;98844.50;;;17.14;96.57
79048;BME280;68680;50.764;6.120;2023-07-31T09:40:29;98835.84;;;17.17;97.37
79048;BME280;68680;50.764;6.120;2023-07-31T09:43:00;98845.28;;;17.14;97.97
79048;BME280;68680;50.764;6.120;2023-07-31T09:45:26;98839.09;;;17.14;99.43
79048;BME280;68680;50.764;6.120;2023-07-31T09:47:52;98835.63;;;17.08;100.00
79048;BME280;68680;50.764;6.120;2023-07-31T09:50:21;98836.28;;;16.95;100.00
79048;BME280;68680;50.764;6.120;2023-07-31T09:52:47;98841.19;;;16.88;100.00
79048;BME280;68680;50.764;6.120;2023-07-31T09:55:14;98841.28;;;16.73;100.00
79048;BME280;68680;50.764;6.120;2023-07-31T09:57:43;98848.59;;;16.57;100.00
79048;BME280;68680;50.764;6.120;2023-07-31T10:00:11;98842.19;;;16.53;100.00
79048;BME280;68680;50.764;6.120;2023-07-31T10:02:39;98837.59;;;16.49;100.00
79048;BME280;68680;50.764;6.120;2023-07-31T10:05:07;98840.03;;;16.50;100.00
79048;BME280;68680;50.764;6.120;2023-07-31T10:07:38;98838.72;;;16.42;100.00
79048;BME280;68680;50.764;6.120;2023-07-31T10:10:05;98843.84;;;16.39;100.00
79048;BME280;68680;50.764;6.120;2023-07-31T10:12:34;98840.66;;;16.32;100.00
79048;BME280;68680;50.764;6.120;2023-07-31T10:15:01;98839.88;;;16.26;100.00
79048;BME280;68680;50.764;6.120;2023-07-31T10:17:30;98848.81;;;16.12;100.00
79048;BME280;68680;50.764;6.120;2023-07-31T10:19:58;98843.94;;;16.14;100.00
79048;BME280;68680;50.764;6.120;2023-07-31T10:22:24;98845.91;;;15.93;100.00
79048;BME280;68680;50.764;6.120;2023-07-31T10:24:52;98844.84;;;15.94;100.00
79048;BME280;68680;50.764;6.120;2023-07-31T10:27:20;98852.63;;;15.95;100.00
79048;BME280;68680;50.764;6.120;2023-07-31T10:29:48;98844.03;;;15.88;100.00
79048;BME280;68680;50.764;6.120;2023-07-31T10:32:15;98839.47;;;15.79;100.00
79048;BME280;68680;50.764;6.120;2023-07-31T10:34:43;98846.19;;;15.81;100.00
79048;BME280;68680;50.764;6.120;2023-07-31T10:37:24;98840.25;;;15.84;100.00
79048;BME280;68680;50.764;6.120;2023-07-31T10:39:59;98845.16;;;15.77;100.00
79048;BME280;68680;50.764;6.120;2023-07-31T10:42:30;98843.25;;;15.78;100.00
79048;BME280;68680;50.764;6.120;2023-07-31T10:45:02;98845.69;;;15.74;100.00
79048;BME280;68680;50.764;6.120;2023-07-31T10:47:28;98836.53;;;15.75;100.00
79048;BME280;68680;50.764;6.120;2023-07-31T10:50:12;98830.63;;;15.78;100.00
79048;BME280;68680;50.764;6.120;2023-07-31T10:52:38;98827.88;;;15.98;100.00
79048;BME280;68680;50.764;6.120;2023-07-31T10:55:25;98816.25;;;16.08;100.00
79048;BME280;68680;50.764;6.120;2023-07-31T10:57:52;98825.66;;;16.16;100.00
79048;BME280;68680;50.764;6.120;2023-07-31T11:00:21;98817.03;;;16.19;100.00
79048;BME280;68680;50.764;6.120;2023-07-31T11:03:02;98814.88;;;16.16;100.00
79048;BME280;68680;50.764;6.120;2023-07-31T11:05:52;98815.47;;;16.13;100.00
79048;BME280;68680;50.764;6.120;2023-07-31T11:08:19;98813.81;;;16.17;100.00
79048;BME280;68680;50.764;6.120;2023-07-31T11:10:48;98818.16;;;16.13;100.00
79048;BME280;68680;50.764;6.120;2023-07-31T11:13:14;98816.25;;;16.13;100.00
79048;BME280;68680;50.764;6.120;2023-07-31T11:15:41;98808.91;;;16.29;100.00
79048;BME280;68680;50.764;6.120;2023-07-31T11:18:07;98823.97;;;16.35;100.00
79048;BME280;68680;50.764;6.120;2023-07-31T11:20:35;98828.53;;;16.34;100.00
79048;BME280;68680;50.764;6.120;2023-07-31T11:23:02;98821.28;;;16.35;100.00
79048;BME280;68680;50.764;6.120;2023-07-31T11:25:30;98826.34;;;16.41;100.00
79048;BME280;68680;50.764;6.120;2023-07-31T11:27:56;98822.56;;;16.48;100.00
79048;BME280;68680;50.764;6.120;2023-07-31T11:30:22;98816.63;;;16.46;100.00
79048;BME280;68680;50.764;6.120;2023-07-31T11:32:49;98809.06;;;16.53;100.00
79048;BME280;68680;50.764;6.120;2023-07-31T11:35:15;98811.72;;;16.58;100.00
79048;BME280;68680;50.764;6.120;2023-07-31T11:37:42;98809.56;;;16.65;100.00
79048;BME280;68680;50.764;6.120;2023-07-31T11:40:09;98807.69;;;16.65;100.00
79048;BME280;68680;50.764;6.120;2023-07-31T11:42:36;98806.84;;;16.70;100.00
79048;BME280;68680;50.764;6.120;2023-07-31T11:45:03;98806.03;;;16.69;100.00
79048;BME280;68680;50.764;6.120;2023-07-31T11:47:32;98802.25;;;16.70;100.00
79048;BME280;68680;50.764;6.120;2023-07-31T11:49:59;98793.38;;;16.70;100.00
79048;BME280;68680;50.764;6.120;2023-07-31T11:52:26;98799.88;;;16.59;100.00
79048;BME280;68680;50.764;6.120;2023-07-31T11:54:53;98795.56;;;16.63;100.00
79048;BME280;68680;50.764;6.120;2023-07-31T11:57:19;98801.53;;;16.60;100.00
79048;BME280;68680;50.764;6.120;2023-07-31T11:59:46;98805.53;;;16.62;100.00
79048;BME280;68680;50.764;6.120;2023-07-31T12:02:12;98800.16;;;16.62;100.00
79048;BME280;68680;50.764;6.120;2023-07-31T12:04:38;98810.63;;;16.64;100.00
79048;BME280;68680;50.764;6.120;2023-07-31T12:07:05;98798.50;;;16.66;100.00
79048;BME280;68680;50.764;6.120;2023-07-31T12:09:31;98795.78;;;16.71;100.00
79048;BME280;68680;50.764;6.120;2023-07-31T12:11:57;98794.09;;;16.80;100.00
79048;BME280;68680;50.764;6.120;2023-07-31T12:14:26;98795.41;;;16.88;100.00
79048;BME280;68680;50.764;6.120;2023-07-31T12:16:55;98785.44;;;16.83;100.00
79048;BME280;68680;50.764;6.120;2023-07-31T12:19:21;98785.16;;;16.85;100.00
79048;BME280;68680;50.764;6.120;2023-07-31T12:21:47;98777.63;;;16.87;100.00
79048;BME280;68680;50.764;6.120;2023-07-31T12:24:14;98774.56;;;16.99;100.00
79048;BME280;68680;50.764;6.120;2023-07-31T12:26:40;98763.91;;;17.17;100.00
79048;BME280;68680;50.764;6.120;2023-07-31T12:29:07;98758.88;;;17.35;100.00
79048;BME280;68680;50.764;6.120;2023-07-31T12:31:34;98759.13;;;17.38;100.00
79048;BME280;68680;50.764;6.120;2023-07-31T12:34:00;98771.03;;;17.32;100.00
79048;BME280;68680;50.764;6.120;2023-07-31T12:36:25;98766.44;;;17.33;100.00
79048;BME280;68680;50.764;6.120;2023-07-31T12:38:52;98779.13;;;17.32;100.00
79048;BME280;68680;50.764;6.120;2023-07-31T12:41:19;98775.34;;;17.33;100.00
79048;BME280;68680;50.764;6.120;2023-07-31T12:43:46;98782.13;;;17.25;100.00
79048;BME280;68680;50.764;6.120;2023-07-31T12:46:11;98776.53;;;17.22;100.00
79048;BME280;68680;50.764;6.120;2023-07-31T12:48:38;98764.09;;;17.26;100.00
79048;BME280;68680;50.764;6.120;2023-07-31T12:51:04;98742.38;;;17.41;100.00
79048;BME280;68680;50.764;6.120;2023-07-31T12:53:30;98729.59;;;17.52;100.00
79048;BME280;68680;50.764;6.120;2023-07-31T12:55:56;98700.56;;;17.68;100.00
79048;BME280;68680;50.764;6.120;2023-07-31T12:58:24;98683.69;;;17.81;100.00
79048;BME280;68680;50.764;6.120;2023-07-31T13:00:49;98662.50;;;17.93;100.00